createdAt,value
2023-03-31T00:01:11.501Z,93.75
2023-03-31T00:03:44.946Z,93.74
2023-03-31T00:06:18.653Z,92.52
2023-03-31T00:08:52.608Z,91.43
2023-03-31T00:11:21.665Z,91.58
2023-03-31T00:13:50.080Z,90.34
2023-03-31T00:16:21.202Z,90.36
2023-03-31T00:19:10.624Z,89.31
2023-03-31T00:21:38.874Z,90.42
2023-03-31T00:24:08.399Z,90.15
2023-03-31T00:26:37.398Z,89.51
2023-03-31T00:29:08.526Z,89.66
2023-03-31T00:31:38.967Z,90.06
2023-03-31T00:34:09.163Z,89.14
2023-03-31T00:36:47.474Z,88.03
2023-03-31T00:39:19.245Z,88.59
2023-03-31T00:41:47.235Z,88.60
2023-03-31T00:44:19.184Z,89.79
2023-03-31T00:46:53.955Z,89.42
2023-03-31T00:49:28.416Z,89.66
2023-03-31T00:52:02.840Z,89.79
2023-03-31T00:54:34.080Z,89.42
2023-03-31T00:57:07.081Z,89.03
2023-03-31T00:59:39.215Z,88.05
2023-03-31T01:02:08.002Z,88.30
2023-03-31T01:04:44.757Z,87.24
2023-03-31T01:07:19.389Z,87.43
2023-03-31T01:09:48.863Z,86.85
2023-03-31T01:12:19.727Z,86.38
2023-03-31T01:14:48.524Z,86.44
2023-03-31T01:17:19.453Z,85.46
2023-03-31T01:20:07.207Z,86.21
2023-03-31T01:23:14.817Z,85.71
2023-03-31T01:26:21.730Z,84.30
2023-03-31T01:28:57.318Z,84.96
2023-03-31T01:32:06.140Z,84.67
2023-03-31T01:35:06.495Z,83.76
2023-03-31T01:38:22.467Z,83.51
2023-03-31T01:41:22.831Z,83.38
2023-03-31T01:43:58.563Z,83.50
2023-03-31T01:46:29.952Z,83.30
2023-03-31T01:49:06.989Z,82.70
2023-03-31T01:51:43.331Z,83.25
2023-03-31T01:54:21.669Z,83.37
2023-03-31T01:56:59.464Z,83.05
2023-03-31T01:59:32.036Z,84.07
2023-03-31T02:02:05.221Z,84.31
2023-03-31T02:04:38.715Z,84.12
2023-03-31T02:07:17.659Z,84.00
2023-03-31T02:09:50.136Z,83.69
2023-03-31T02:12:23.721Z,83.87
2023-03-31T02:14:55.088Z,83.67
2023-03-31T02:17:30.851Z,83.60
2023-03-31T02:20:05.681Z,83.20
2023-03-31T02:22:38.397Z,83.85
2023-03-31T02:25:09.337Z,83.90
2023-03-31T02:27:43.115Z,83.56
2023-03-31T02:30:14.870Z,83.66
2023-03-31T02:32:44.899Z,84.68
2023-03-31T02:35:16.949Z,85.40
2023-03-31T02:37:46.839Z,85.31
2023-03-31T02:40:18.997Z,86.06
2023-03-31T02:42:50.332Z,85.92
2023-03-31T02:45:46.230Z,85.33
2023-03-31T02:48:19.361Z,85.13
2023-03-31T02:51:20.502Z,84.98
2023-03-31T02:54:16.306Z,84.72
2023-03-31T02:56:59.287Z,86.11
2023-03-31T02:59:42.259Z,85.73
2023-03-31T03:02:19.030Z,86.53
2023-03-31T03:05:09.119Z,86.55
2023-03-31T03:07:45.781Z,87.00
2023-03-31T03:10:22.352Z,86.80
2023-03-31T03:12:58.784Z,86.54
2023-03-31T03:16:05.377Z,86.30
2023-03-31T03:18:33.685Z,86.71
2023-03-31T03:21:01.699Z,86.88
2023-03-31T03:23:29.828Z,86.74
2023-03-31T03:25:58.241Z,86.90
2023-03-31T03:28:26.512Z,87.66
2023-03-31T03:30:55.836Z,87.38
2023-03-31T03:33:25.144Z,87.16
2023-03-31T03:35:53.296Z,87.25
2023-03-31T03:38:21.301Z,87.21
2023-03-31T03:40:53.916Z,87.42
2023-03-31T03:43:21.891Z,86.63
2023-03-31T03:45:49.972Z,87.07
2023-03-31T03:48:19.737Z,86.45
2023-03-31T03:50:48.276Z,87.43
2023-03-31T03:53:17.488Z,87.78
2023-03-31T03:55:48.984Z,88.01
2023-03-31T03:58:17.389Z,87.08
2023-03-31T04:00:46.244Z,86.96
2023-03-31T04:03:14.824Z,87.24
2023-03-31T04:05:44.194Z,88.18
2023-03-31T04:08:12.361Z,88.14
2023-03-31T04:10:46.076Z,87.64
2023-03-31T04:13:14.177Z,87.41
2023-03-31T04:15:42.089Z,87.01
2023-03-31T04:18:18.994Z,87.35
2023-03-31T04:20:54.684Z,86.74
2023-03-31T04:23:43.000Z,87.87
2023-03-31T04:26:11.222Z,87.04
2023-03-31T04:28:43.022Z,87.09
2023-03-31T04:31:18.766Z,87.65
2023-03-31T04:33:48.187Z,87.14
2023-03-31T04:36:18.724Z,86.95
2023-03-31T04:38:47.870Z,86.64
2023-03-31T04:41:16.500Z,87.04
2023-03-31T04:43:44.710Z,86.20
2023-03-31T04:46:12.650Z,85.86
2023-03-31T04:48:41.381Z,85.75
2023-03-31T04:51:10.620Z,85.40
2023-03-31T04:53:41.188Z,85.38
2023-03-31T04:56:09.867Z,84.56
2023-03-31T04:58:38.080Z,85.14
2023-03-31T05:01:07.647Z,84.76
2023-03-31T05:03:36.021Z,84.51
2023-03-31T05:06:04.445Z,84.71
2023-03-31T05:08:33.659Z,84.37
2023-03-31T05:11:04.036Z,84.98
2023-03-31T05:13:32.561Z,84.88
2023-03-31T05:16:07.090Z,84.30
2023-03-31T05:18:35.519Z,83.50
2023-03-31T05:21:13.986Z,83.00
2023-03-31T05:23:42.114Z,84.49
2023-03-31T05:26:12.131Z,84.29
2023-03-31T05:28:40.342Z,84.06
2023-03-31T05:31:11.342Z,83.45
2023-03-31T05:33:41.987Z,83.47
2023-03-31T05:36:11.907Z,83.45
2023-03-31T05:38:40.320Z,82.85
2023-03-31T05:41:09.541Z,83.16
2023-03-31T05:43:40.788Z,82.62
2023-03-31T05:46:09.252Z,82.05
2023-03-31T05:48:38.722Z,82.31
2023-03-31T05:51:07.065Z,82.80
2023-03-31T05:53:35.083Z,82.68
2023-03-31T05:56:06.535Z,82.34
2023-03-31T05:58:35.595Z,81.69
2023-03-31T06:01:07.750Z,81.81
2023-03-31T06:03:36.590Z,81.70
2023-03-31T06:06:05.575Z,81.51
2023-03-31T06:08:34.197Z,82.79
2023-03-31T06:11:05.140Z,81.83
2023-03-31T06:13:33.383Z,81.77
2023-03-31T06:16:02.892Z,81.53
2023-03-31T06:18:35.134Z,80.77
2023-03-31T06:21:04.666Z,80.26
2023-03-31T06:23:33.149Z,80.41
2023-03-31T06:26:03.446Z,79.60
2023-03-31T06:28:31.859Z,79.21
2023-03-31T06:31:05.280Z,78.57
2023-03-31T06:33:36.339Z,78.73
2023-03-31T06:36:05.954Z,77.77
2023-03-31T06:38:34.290Z,78.83
2023-03-31T06:41:02.990Z,77.66
2023-03-31T06:43:31.154Z,78.37
2023-03-31T06:45:59.494Z,77.01
2023-03-31T06:48:31.016Z,77.94
2023-03-31T06:51:04.085Z,77.26
2023-03-31T06:53:32.371Z,76.73
2023-03-31T06:56:01.654Z,76.40
2023-03-31T06:58:31.381Z,76.82
2023-03-31T07:01:00.487Z,76.37
2023-03-31T07:03:29.705Z,75.87
2023-03-31T07:05:58.053Z,75.95
2023-03-31T07:08:28.272Z,75.75
2023-03-31T07:10:58.965Z,75.63
2023-03-31T07:13:28.586Z,75.43
2023-03-31T07:15:56.879Z,74.71
2023-03-31T07:18:34.893Z,74.55
2023-03-31T07:21:05.799Z,74.32
2023-03-31T07:23:38.041Z,74.55
2023-03-31T07:26:06.449Z,75.61
2023-03-31T07:28:35.839Z,75.16
2023-03-31T07:31:04.013Z,73.92
2023-03-31T07:33:32.194Z,73.06
2023-03-31T07:36:10.587Z,72.28
2023-03-31T07:38:41.435Z,71.27
2023-03-31T07:41:12.063Z,72.03
2023-03-31T07:43:40.088Z,71.41
2023-03-31T07:46:08.980Z,71.54
2023-03-31T07:48:37.252Z,71.63
2023-03-31T07:51:06.296Z,72.84
2023-03-31T07:53:34.637Z,74.16
2023-03-31T07:56:04.344Z,75.55
2023-03-31T07:58:32.531Z,76.95
2023-03-31T08:01:01.119Z,79.09
2023-03-31T08:03:29.200Z,80.63
2023-03-31T08:05:57.455Z,81.15
2023-03-31T08:08:26.019Z,82.16
2023-03-31T08:10:54.099Z,82.12
2023-03-31T08:13:23.430Z,83.03
2023-03-31T08:15:51.528Z,84.31
2023-03-31T08:18:20.073Z,84.65
2023-03-31T08:20:50.036Z,84.87
2023-03-31T08:23:18.088Z,85.32
2023-03-31T08:25:46.039Z,84.88
2023-03-31T08:28:14.167Z,84.98
2023-03-31T08:30:44.019Z,84.92
2023-03-31T08:33:12.957Z,84.57
2023-03-31T08:35:41.087Z,84.15
2023-03-31T08:38:09.327Z,84.22
2023-03-31T08:40:40.334Z,84.12
2023-03-31T08:43:15.875Z,82.34
2023-03-31T08:45:48.895Z,83.87
2023-03-31T08:48:30.183Z,83.89
2023-03-31T08:51:04.593Z,84.00
2023-03-31T08:53:37.179Z,84.47
2023-03-31T08:56:09.744Z,83.55
2023-03-31T08:58:41.538Z,83.67
2023-03-31T09:01:21.400Z,82.97
2023-03-31T09:04:12.483Z,82.80
2023-03-31T09:06:44.751Z,83.76
2023-03-31T09:09:18.943Z,84.61
2023-03-31T09:11:52.868Z,85.63
2023-03-31T09:14:29.043Z,86.38
2023-03-31T09:17:09.106Z,86.69
2023-03-31T09:19:39.799Z,86.41
2023-03-31T09:22:15.931Z,86.63
2023-03-31T09:24:52.526Z,87.07
2023-03-31T09:27:22.263Z,86.32
2023-03-31T09:29:54.350Z,85.75
2023-03-31T09:32:27.044Z,85.12
2023-03-31T09:35:01.313Z,86.20
2023-03-31T09:37:33.295Z,85.51
2023-03-31T09:40:07.753Z,85.17
2023-03-31T09:42:36.562Z,84.97
2023-03-31T09:45:05.006Z,85.01
2023-03-31T09:47:40.647Z,84.79
2023-03-31T09:50:09.461Z,84.78
2023-03-31T09:52:42.616Z,84.18
2023-03-31T09:55:32.112Z,84.79
2023-03-31T09:58:08.885Z,84.02
2023-03-31T10:00:38.286Z,83.75
2023-03-31T10:03:08.520Z,83.24
2023-03-31T10:05:40.227Z,83.43
2023-03-31T10:08:21.187Z,82.89
2023-03-31T10:10:51.970Z,83.25
2023-03-31T10:13:23.411Z,83.09
2023-03-31T10:15:54.570Z,82.70
2023-03-31T10:18:35.150Z,82.97
2023-03-31T10:21:05.447Z,81.47
2023-03-31T10:23:36.597Z,81.39
2023-03-31T10:26:06.097Z,82.23
2023-03-31T10:28:36.990Z,81.68
2023-03-31T10:31:06.644Z,81.82
2023-03-31T10:33:45.172Z,81.76
2023-03-31T10:36:25.990Z,80.45
2023-03-31T10:38:55.510Z,81.14
2023-03-31T10:41:26.462Z,80.89
2023-03-31T10:43:56.704Z,79.96
2023-03-31T10:46:42.253Z,77.55
2023-03-31T10:49:25.485Z,76.77
2023-03-31T10:51:54.712Z,77.97
2023-03-31T10:54:22.839Z,78.31
2023-03-31T10:56:54.332Z,78.26
2023-03-31T10:59:37.745Z,77.94
2023-03-31T11:02:23.272Z,77.02
2023-03-31T11:05:06.629Z,79.32
2023-03-31T11:07:49.244Z,79.60
2023-03-31T11:10:35.692Z,79.82
2023-03-31T11:13:12.827Z,80.14
2023-03-31T11:15:48.219Z,80.13
2023-03-31T11:18:37.915Z,79.78
2023-03-31T11:21:20.392Z,80.68
2023-03-31T11:23:55.003Z,80.21
2023-03-31T11:26:34.488Z,80.00
2023-03-31T11:29:44.946Z,81.00
2023-03-31T11:32:33.130Z,81.23
2023-03-31T11:35:19.919Z,81.24
2023-03-31T11:38:07.339Z,81.26
2023-03-31T11:40:48.471Z,81.17
2023-03-31T11:43:24.875Z,80.32
2023-03-31T11:45:57.862Z,80.17
2023-03-31T11:48:38.129Z,79.68
2023-03-31T11:51:13.183Z,80.31
2023-03-31T11:53:46.343Z,80.90
2023-03-31T11:56:16.128Z,80.61
2023-03-31T11:58:49.259Z,80.54
2023-03-31T12:01:25.113Z,80.71
2023-03-31T12:04:00.342Z,83.32
2023-03-31T12:06:32.894Z,84.94
2023-03-31T12:09:12.976Z,86.71
2023-03-31T12:11:46.144Z,85.80
2023-03-31T12:14:27.170Z,86.33
2023-03-31T12:16:59.456Z,86.41
2023-03-31T12:19:33.938Z,86.41
2023-03-31T12:22:09.896Z,87.60
2023-03-31T12:24:39.354Z,87.55
2023-03-31T12:27:14.600Z,88.02
2023-03-31T12:29:46.224Z,88.99
2023-03-31T12:32:19.552Z,89.66
2023-03-31T12:34:53.198Z,89.39
2023-03-31T12:38:07.431Z,89.51
2023-03-31T12:40:47.825Z,88.93
2023-03-31T12:43:56.862Z,88.77
2023-03-31T12:46:38.262Z,88.54
2023-03-31T12:49:19.703Z,88.58
2023-03-31T12:52:00.646Z,89.07
2023-03-31T12:55:03.856Z,89.05
2023-03-31T12:57:33.475Z,90.10
2023-03-31T13:00:23.726Z,88.97
2023-03-31T13:02:52.639Z,89.53
2023-03-31T13:05:47.297Z,90.53
2023-03-31T13:08:48.880Z,90.36
2023-03-31T13:11:17.714Z,90.21
2023-03-31T13:14:02.443Z,89.04
2023-03-31T13:16:31.345Z,88.21
2023-03-31T13:18:59.690Z,87.64
2023-03-31T13:21:28.864Z,86.37
2023-03-31T13:24:01.958Z,85.32
2023-03-31T13:26:47.335Z,84.68
2023-03-31T13:29:25.653Z,84.39
2023-03-31T13:32:23.032Z,83.71
2023-03-31T13:34:57.875Z,83.99
2023-03-31T13:37:53.513Z,82.84
2023-03-31T13:40:40.492Z,83.45
2023-03-31T13:43:41.268Z,84.38
2023-03-31T13:46:31.106Z,83.56
2023-03-31T13:49:11.422Z,83.18
2023-03-31T13:51:56.650Z,82.87
2023-03-31T13:54:56.216Z,83.00
2023-03-31T13:58:11.482Z,80.75
2023-03-31T14:00:56.016Z,80.48
2023-03-31T14:03:37.579Z,78.36
2023-03-31T14:06:12.809Z,78.02
2023-03-31T14:08:50.399Z,77.43
2023-03-31T14:11:23.027Z,76.11
2023-03-31T14:14:02.015Z,77.99
2023-03-31T14:16:33.864Z,77.96
2023-03-31T14:19:27.430Z,77.00
2023-03-31T14:22:04.750Z,77.58
2023-03-31T14:24:40.828Z,77.45
2023-03-31T14:27:21.846Z,73.89
2023-03-31T14:29:58.066Z,75.00
2023-03-31T14:32:34.160Z,74.15
2023-03-31T14:35:23.821Z,73.78
2023-03-31T14:37:52.244Z,73.90
2023-03-31T14:40:20.711Z,74.37
2023-03-31T14:42:50.932Z,72.89
2023-03-31T14:45:25.013Z,72.60
2023-03-31T14:47:58.125Z,72.41
2023-03-31T14:50:32.745Z,73.13
2023-03-31T14:53:01.514Z,72.54
2023-03-31T14:55:49.304Z,72.05
2023-03-31T14:58:26.306Z,72.46
2023-03-31T15:00:55.191Z,72.51
2023-03-31T15:03:23.277Z,73.02
2023-03-31T15:05:58.271Z,71.60
2023-03-31T15:08:27.907Z,71.67
2023-03-31T15:11:12.035Z,71.33
2023-03-31T15:13:46.826Z,70.00
2023-03-31T15:16:22.957Z,69.21
2023-03-31T15:18:54.836Z,69.41
2023-03-31T15:21:27.506Z,69.07
2023-03-31T15:23:57.587Z,70.25
2023-03-31T15:26:40.406Z,71.21
2023-03-31T15:29:11.324Z,69.65
2023-03-31T15:31:41.400Z,69.51
2023-03-31T15:34:20.952Z,70.29
2023-03-31T15:36:51.265Z,67.72
2023-03-31T15:39:19.802Z,69.01
2023-03-31T15:41:49.844Z,68.57
2023-03-31T15:44:37.831Z,69.15
2023-03-31T15:47:15.426Z,68.78
2023-03-31T15:49:51.346Z,68.02
2023-03-31T15:52:28.846Z,68.31
2023-03-31T15:54:57.270Z,68.43
2023-03-31T15:57:36.327Z,67.91
2023-03-31T16:00:08.008Z,68.44
2023-03-31T16:02:44.061Z,68.39
2023-03-31T16:05:32.268Z,67.85
2023-03-31T16:08:13.087Z,68.15
2023-03-31T16:10:42.151Z,69.25
2023-03-31T16:13:13.507Z,68.13
2023-03-31T16:15:46.759Z,68.34
2023-03-31T16:18:18.723Z,68.57
2023-03-31T16:20:53.228Z,68.83
2023-03-31T16:23:25.576Z,69.16
2023-03-31T16:25:54.174Z,69.03
2023-03-31T16:28:26.283Z,68.14
2023-03-31T16:30:54.850Z,68.14
2023-03-31T16:33:25.457Z,68.60
2023-03-31T16:35:56.557Z,69.51
2023-03-31T16:38:28.799Z,69.15
2023-03-31T16:40:59.262Z,69.18
2023-03-31T16:43:29.185Z,69.42
2023-03-31T16:46:00.489Z,70.09
2023-03-31T16:48:30.208Z,70.02
2023-03-31T16:51:01.896Z,70.13
2023-03-31T16:53:34.216Z,70.48
2023-03-31T16:56:02.541Z,69.96
2023-03-31T16:58:30.685Z,70.28
2023-03-31T17:00:59.138Z,69.70
2023-03-31T17:03:29.614Z,70.24
2023-03-31T17:05:59.613Z,70.16
2023-03-31T17:08:28.657Z,70.39
2023-03-31T17:11:02.339Z,69.90
2023-03-31T17:13:30.969Z,69.87
2023-03-31T17:16:13.088Z,70.35
2023-03-31T17:18:45.906Z,71.06
2023-03-31T17:21:16.591Z,71.31
2023-03-31T17:23:44.821Z,71.84
2023-03-31T17:26:15.486Z,73.04
2023-03-31T17:28:43.792Z,73.31
2023-03-31T17:31:16.289Z,73.20
2023-03-31T17:33:45.057Z,72.98
2023-03-31T17:36:13.790Z,73.15
2023-03-31T17:38:42.553Z,73.49
2023-03-31T17:41:15.695Z,73.22
2023-03-31T17:43:49.073Z,73.35
2023-03-31T17:46:17.844Z,73.71
2023-03-31T17:48:48.865Z,74.34
2023-03-31T17:51:20.050Z,73.85
2023-03-31T17:53:49.442Z,74.80
2023-03-31T17:56:18.863Z,74.70
2023-03-31T17:58:48.367Z,75.42
2023-03-31T18:01:16.559Z,75.94
2023-03-31T18:03:46.630Z,76.43
2023-03-31T18:06:15.883Z,76.99
2023-03-31T18:08:45.305Z,76.80
2023-03-31T18:11:13.664Z,77.13
2023-03-31T18:13:42.060Z,77.25
2023-03-31T18:16:13.232Z,77.55
2023-03-31T18:18:41.890Z,78.67
2023-03-31T18:21:13.199Z,78.14
2023-03-31T18:23:41.902Z,77.79
2023-03-31T18:26:12.155Z,78.77
2023-03-31T18:28:41.288Z,78.34
2023-03-31T18:31:11.834Z,78.35
2023-03-31T18:33:40.312Z,78.48
2023-03-31T18:36:09.606Z,78.36
2023-03-31T18:38:37.862Z,78.40
2023-03-31T18:41:06.286Z,78.62
2023-03-31T18:43:36.977Z,78.30
2023-03-31T18:46:05.089Z,77.81
2023-03-31T18:48:35.799Z,78.10
2023-03-31T18:51:05.107Z,77.22
2023-03-31T18:53:33.253Z,78.06
2023-03-31T18:56:01.421Z,78.07
2023-03-31T18:58:30.602Z,77.92
2023-03-31T19:00:59.597Z,78.05
2023-03-31T19:03:28.157Z,78.06
2023-03-31T19:06:04.853Z,78.33
2023-03-31T19:08:33.974Z,77.74
2023-03-31T19:11:11.035Z,78.71
2023-03-31T19:13:39.285Z,79.16
2023-03-31T19:16:07.777Z,79.66
2023-03-31T19:18:36.492Z,79.10
2023-03-31T19:21:06.457Z,78.81
2023-03-31T19:23:35.268Z,79.33
2023-03-31T19:26:03.923Z,79.72
2023-03-31T19:28:32.505Z,78.99
2023-03-31T19:31:03.632Z,79.80
2023-03-31T19:33:31.742Z,79.36
2023-03-31T19:36:00.406Z,79.73
2023-03-31T19:38:32.318Z,79.25
2023-03-31T19:41:00.368Z,80.73
2023-03-31T19:43:30.321Z,80.34
2023-03-31T19:45:59.489Z,81.09
2023-03-31T19:48:30.243Z,81.15
2023-03-31T19:51:00.739Z,81.74
2023-03-31T19:53:30.459Z,81.91
2023-03-31T19:56:03.204Z,82.21
2023-03-31T19:58:35.114Z,82.11
2023-03-31T20:01:04.814Z,82.36
2023-03-31T20:03:33.581Z,82.38
2023-03-31T20:06:07.629Z,82.82
2023-03-31T20:08:37.696Z,82.64
2023-03-31T20:11:08.402Z,82.82
2023-03-31T20:13:37.077Z,82.56
2023-03-31T20:16:07.750Z,83.20
2023-03-31T20:18:38.129Z,82.62
2023-03-31T20:21:09.077Z,83.03
2023-03-31T20:23:39.143Z,83.16
2023-03-31T20:26:09.106Z,83.68
2023-03-31T20:28:39.461Z,83.15
2023-03-31T20:31:10.742Z,83.53
2023-03-31T20:33:39.101Z,83.84
2023-03-31T20:36:10.298Z,83.00
2023-03-31T20:38:40.912Z,82.82
2023-03-31T20:41:09.825Z,83.13
2023-03-31T20:43:38.760Z,83.54
2023-03-31T20:46:10.462Z,82.82
2023-03-31T20:48:40.515Z,83.33
2023-03-31T20:51:11.381Z,83.77
2023-03-31T20:53:46.210Z,83.10
2023-03-31T20:56:16.903Z,83.99
2023-03-31T20:58:45.101Z,83.99
2023-03-31T21:01:17.130Z,83.53
2023-03-31T21:03:47.655Z,83.51
2023-03-31T21:06:19.769Z,83.56
2023-03-31T21:08:53.468Z,83.31
2023-03-31T21:11:22.860Z,83.55
2023-03-31T21:13:53.132Z,83.74
2023-03-31T21:16:25.526Z,84.52
2023-03-31T21:18:55.142Z,84.99
2023-03-31T21:21:25.054Z,84.92
2023-03-31T21:23:54.936Z,84.61
2023-03-31T21:26:24.867Z,84.51
2023-03-31T21:28:54.946Z,85.35
2023-03-31T21:31:26.286Z,85.92
2023-03-31T21:33:56.801Z,86.72
2023-03-31T21:36:25.521Z,86.03
2023-03-31T21:38:55.957Z,86.02
2023-03-31T21:41:26.258Z,86.47
2023-03-31T21:43:54.665Z,86.55
2023-03-31T21:46:26.073Z,86.57
2023-03-31T21:48:54.875Z,86.05
2023-03-31T21:51:23.575Z,86.22
2023-03-31T21:53:53.521Z,86.59
2023-03-31T21:56:25.942Z,86.36
2023-03-31T21:58:54.300Z,87.73
2023-03-31T22:01:23.641Z,87.87
2023-03-31T22:03:53.409Z,88.14
2023-03-31T22:06:22.537Z,88.65
2023-03-31T22:08:51.924Z,88.88
2023-03-31T22:11:20.564Z,88.92
2023-03-31T22:13:50.613Z,89.70
2023-03-31T22:16:21.569Z,89.06
2023-03-31T22:18:51.593Z,89.47
2023-03-31T22:21:23.226Z,89.54
2023-03-31T22:23:55.187Z,88.68
2023-03-31T22:26:26.199Z,89.78
2023-03-31T22:28:55.954Z,89.65
2023-03-31T22:31:26.250Z,90.21
2023-03-31T22:33:54.517Z,90.80
2023-03-31T22:36:23.163Z,90.64
2023-03-31T22:38:51.705Z,90.09
2023-03-31T22:41:19.810Z,90.15
2023-03-31T22:43:47.669Z,90.69
2023-03-31T22:46:17.860Z,90.59
2023-03-31T22:48:49.542Z,91.27
2023-03-31T22:51:17.552Z,91.19
2023-03-31T22:53:45.521Z,90.87
2023-03-31T22:56:13.624Z,90.69
2023-03-31T22:58:42.028Z,89.92
2023-03-31T23:01:15.701Z,90.01
2023-03-31T23:03:46.354Z,90.22
2023-03-31T23:06:15.688Z,89.92
2023-03-31T23:08:45.086Z,89.53
2023-03-31T23:11:14.356Z,89.58
2023-03-31T23:13:42.790Z,89.61
2023-03-31T23:16:13.986Z,89.57
2023-03-31T23:18:46.352Z,89.67
2023-03-31T23:21:19.669Z,89.58
2023-03-31T23:23:48.309Z,89.61
2023-03-31T23:26:19.204Z,89.69
2023-03-31T23:28:49.573Z,89.46
2023-03-31T23:31:18.049Z,90.74
2023-03-31T23:33:45.994Z,90.75
2023-03-31T23:36:17.776Z,90.77
2023-03-31T23:38:46.841Z,90.23
2023-03-31T23:41:15.194Z,89.95
2023-03-31T23:43:43.282Z,90.27
2023-03-31T23:46:12.072Z,91.00
2023-03-31T23:48:40.960Z,90.43
2023-03-31T23:51:10.162Z,90.92
2023-03-31T23:53:39.722Z,90.39
2023-03-31T23:56:09.898Z,90.56
2023-03-31T23:58:37.944Z,90.68
